createdAt,value
2023-03-04T00:02:05.898Z,96558.65
2023-03-04T00:04:32.497Z,96557.86
2023-03-04T00:06:59.077Z,96561.70
2023-03-04T00:09:25.875Z,96561.91
2023-03-04T00:11:52.524Z,96562.38
2023-03-04T00:14:19.559Z,96562.40
2023-03-04T00:16:46.294Z,96564.00
2023-03-04T00:19:13.259Z,96565.98
2023-03-04T00:21:40.089Z,96560.81
2023-03-04T00:24:07.146Z,96564.14
2023-03-04T00:26:33.982Z,96560.51
2023-03-04T00:29:00.641Z,96558.22
2023-03-04T00:31:27.398Z,96556.52
2023-03-04T00:33:54.325Z,96556.20
2023-03-04T00:36:21.663Z,96554.77
2023-03-04T00:38:48.519Z,96558.98
2023-03-04T00:41:15.255Z,96556.25
2023-03-04T00:43:42.207Z,96553.52
2023-03-04T00:46:08.942Z,96551.70
2023-03-04T00:48:35.816Z,96554.10
2023-03-04T00:51:02.427Z,96552.23
2023-03-04T00:53:29.257Z,96549.41
2023-03-04T00:55:56.006Z,96549.30
2023-03-04T00:58:22.644Z,96547.02
2023-03-04T01:00:49.196Z,96547.55
2023-03-04T01:03:16.117Z,96542.77
2023-03-04T01:05:42.999Z,96543.88
2023-03-04T01:08:09.624Z,96547.45
2023-03-04T01:10:36.234Z,96540.41
2023-03-04T01:13:02.886Z,96541.52
2023-03-04T01:15:29.609Z,96536.79
2023-03-04T01:17:56.397Z,96533.90
2023-03-04T01:20:24.741Z,96534.54
2023-03-04T01:22:51.505Z,96532.41
2023-03-04T01:25:18.316Z,96531.66
2023-03-04T01:27:45.173Z,96532.02
2023-03-04T01:30:12.424Z,96528.84
2023-03-04T01:32:39.156Z,96532.19
2023-03-04T01:35:06.602Z,96529.98
2023-03-04T01:37:33.455Z,96524.44
2023-03-04T01:40:00.102Z,96525.34
2023-03-04T01:42:31.341Z,96520.48
2023-03-04T01:45:00.230Z,96519.37
2023-03-04T01:47:29.227Z,96517.55
2023-03-04T01:49:57.909Z,96510.27
2023-03-04T01:52:27.245Z,96511.96
2023-03-04T01:54:54.009Z,96505.66
2023-03-04T01:57:23.555Z,96496.95
2023-03-04T02:00:36.593Z,96496.59
2023-03-04T02:03:16.122Z,96495.43
2023-03-04T02:05:48.266Z,96496.59
2023-03-04T02:08:17.498Z,96498.42
2023-03-04T02:10:45.290Z,96493.66
2023-03-04T02:13:13.321Z,96492.59
2023-03-04T02:15:40.824Z,96489.34
2023-03-04T02:18:19.408Z,96487.20
2023-03-04T02:21:09.600Z,96479.23
2023-03-04T02:23:39.195Z,96485.41
2023-03-04T02:26:21.099Z,96483.82
2023-03-04T02:28:51.633Z,96482.13
2023-03-04T02:31:25.915Z,96482.44
2023-03-04T02:33:56.019Z,96476.63
2023-03-04T02:36:23.632Z,96474.82
2023-03-04T02:38:52.520Z,96473.70
2023-03-04T02:41:25.825Z,96473.06
2023-03-04T02:43:55.425Z,96471.58
2023-03-04T02:46:23.220Z,96471.95
2023-03-04T02:48:51.270Z,96474.66
2023-03-04T02:51:18.104Z,96469.97
2023-03-04T02:53:45.147Z,96477.22
2023-03-04T02:56:12.299Z,96472.85
2023-03-04T02:58:40.676Z,96474.06
2023-03-04T03:01:08.766Z,96477.79
2023-03-04T03:03:35.595Z,96473.52
2023-03-04T03:06:02.327Z,96470.49
2023-03-04T03:08:29.685Z,96466.39
2023-03-04T03:10:56.446Z,96462.65
2023-03-04T03:13:24.204Z,96466.91
2023-03-04T03:15:51.048Z,96460.79
2023-03-04T03:18:18.074Z,96464.84
2023-03-04T03:20:44.643Z,96460.85
2023-03-04T03:23:11.404Z,96455.48
2023-03-04T03:25:38.516Z,96464.57
2023-03-04T03:28:06.271Z,96463.98
2023-03-04T03:30:32.826Z,96467.55
2023-03-04T03:32:59.717Z,96466.42
2023-03-04T03:35:27.138Z,96466.95
2023-03-04T03:37:53.838Z,96464.17
2023-03-04T03:40:20.364Z,96466.55
2023-03-04T03:42:46.986Z,96461.02
2023-03-04T03:45:13.687Z,96461.16
2023-03-04T03:47:40.402Z,96460.95
2023-03-04T03:50:07.490Z,96460.20
2023-03-04T03:52:34.390Z,96465.73
2023-03-04T03:55:01.892Z,96463.11
2023-03-04T03:57:29.515Z,96461.56
2023-03-04T03:59:56.573Z,96461.98
2023-03-04T04:02:23.370Z,96461.61
2023-03-04T04:04:50.109Z,96453.64
2023-03-04T04:07:17.453Z,96452.47
2023-03-04T04:09:44.725Z,96453.05
2023-03-04T04:12:14.157Z,96454.45
2023-03-04T04:14:40.989Z,96455.80
2023-03-04T04:17:08.249Z,96459.02
2023-03-04T04:19:35.376Z,96457.98
2023-03-04T04:22:03.368Z,96457.70
2023-03-04T04:24:30.014Z,96458.55
2023-03-04T04:26:57.474Z,96454.46
2023-03-04T04:29:24.105Z,96457.27
2023-03-04T04:31:51.458Z,96458.45
2023-03-04T04:34:18.303Z,96457.17
2023-03-04T04:36:45.042Z,96455.14
2023-03-04T04:39:11.799Z,96457.48
2023-03-04T04:41:41.586Z,96454.34
2023-03-04T04:44:09.167Z,96452.09
2023-03-04T04:46:36.401Z,96451.30
2023-03-04T04:49:03.319Z,96451.13
2023-03-04T04:51:30.196Z,96451.55
2023-03-04T04:53:59.285Z,96454.32
2023-03-04T04:56:27.569Z,96451.18
2023-03-04T04:58:57.260Z,96454.33
2023-03-04T05:01:25.337Z,96449.95
2023-03-04T05:03:55.527Z,96450.11
2023-03-04T05:06:24.461Z,96453.51
2023-03-04T05:08:51.824Z,96459.35
2023-03-04T05:11:19.681Z,96461.46
2023-03-04T05:13:48.169Z,96458.95
2023-03-04T05:16:16.599Z,96458.05
2023-03-04T05:18:43.596Z,96456.91
2023-03-04T05:21:10.810Z,96460.10
2023-03-04T05:23:40.445Z,96459.39
2023-03-04T05:26:08.844Z,96461.53
2023-03-04T05:28:35.702Z,96461.06
2023-03-04T05:31:02.569Z,96456.77
2023-03-04T05:33:29.465Z,96456.19
2023-03-04T05:35:56.939Z,96456.89
2023-03-04T05:38:25.100Z,96456.66
2023-03-04T05:40:57.565Z,96459.74
2023-03-04T05:43:25.137Z,96452.54
2023-03-04T05:45:51.878Z,96453.45
2023-03-04T05:48:18.824Z,96455.86
2023-03-04T05:50:45.535Z,96453.58
2023-03-04T05:53:12.404Z,96456.52
2023-03-04T05:55:39.149Z,96452.21
2023-03-04T05:58:05.853Z,96452.05
2023-03-04T06:00:32.535Z,96454.52
2023-03-04T06:02:59.312Z,96453.98
2023-03-04T06:05:26.102Z,96452.38
2023-03-04T06:07:52.744Z,96454.20
2023-03-04T06:10:19.285Z,96456.11
2023-03-04T06:12:45.907Z,96454.88
2023-03-04T06:15:13.476Z,96451.82
2023-03-04T06:17:42.325Z,96452.92
2023-03-04T06:20:11.155Z,96452.79
2023-03-04T06:22:38.306Z,96452.77
2023-03-04T06:25:05.673Z,96454.89
2023-03-04T06:27:32.493Z,96454.70
2023-03-04T06:29:59.336Z,96457.70
2023-03-04T06:32:26.420Z,96456.33
2023-03-04T06:34:53.534Z,96458.70
2023-03-04T06:37:20.227Z,96458.45
2023-03-04T06:39:46.996Z,96462.16
2023-03-04T06:42:13.857Z,96462.54
2023-03-04T06:44:40.692Z,96462.10
2023-03-04T06:47:08.050Z,96460.66
2023-03-04T06:49:34.804Z,96456.42
2023-03-04T06:52:01.857Z,96457.73
2023-03-04T06:54:28.459Z,96459.77
2023-03-04T06:56:55.027Z,96459.40
2023-03-04T06:59:21.763Z,96460.02
2023-03-04T07:01:48.393Z,96454.20
2023-03-04T07:04:15.071Z,96449.55
2023-03-04T07:06:41.894Z,96448.42
2023-03-04T07:09:08.657Z,96443.66
2023-03-04T07:11:35.680Z,96438.00
2023-03-04T07:14:02.599Z,96435.45
2023-03-04T07:16:29.285Z,96433.07
2023-03-04T07:18:56.004Z,96430.69
2023-03-04T07:21:22.742Z,96429.95
2023-03-04T07:23:49.474Z,96427.98
2023-03-04T07:26:16.327Z,96426.61
2023-03-04T07:28:43.567Z,96427.77
2023-03-04T07:31:22.866Z,96420.23
2023-03-04T07:33:50.695Z,96418.52
2023-03-04T07:36:19.252Z,96410.35
2023-03-04T07:38:47.832Z,96406.36
2023-03-04T07:41:15.802Z,96401.09
2023-03-04T07:43:42.640Z,96397.85
2023-03-04T07:46:09.866Z,96399.00
2023-03-04T07:48:36.996Z,96395.17
2023-03-04T07:51:16.158Z,96397.98
2023-03-04T07:53:45.359Z,96402.23
2023-03-04T07:56:16.193Z,96399.45
2023-03-04T07:58:42.940Z,96397.35
2023-03-04T08:01:15.001Z,96395.58
2023-03-04T08:03:42.562Z,96398.36
2023-03-04T08:06:11.574Z,96396.62
2023-03-04T08:08:39.059Z,96397.73
2023-03-04T08:11:08.074Z,96399.09
2023-03-04T08:13:35.726Z,96394.18
2023-03-04T08:16:03.152Z,96395.58
2023-03-04T08:18:30.225Z,96394.52
2023-03-04T08:20:56.858Z,96394.85
2023-03-04T08:23:23.902Z,96392.32
2023-03-04T08:25:51.096Z,96394.57
2023-03-04T08:28:18.383Z,96390.95
2023-03-04T08:30:45.237Z,96390.23
2023-03-04T08:33:12.030Z,96387.25
2023-03-04T08:35:39.778Z,96387.30
2023-03-04T08:38:06.517Z,96381.00
2023-03-04T08:40:33.427Z,96383.27
2023-03-04T08:43:00.276Z,96377.86
2023-03-04T08:45:27.209Z,96381.30
2023-03-04T08:47:53.968Z,96380.61
2023-03-04T08:50:22.449Z,96375.27
2023-03-04T08:52:49.303Z,96371.95
2023-03-04T08:55:16.008Z,96365.00
2023-03-04T08:57:42.834Z,96366.34
2023-03-04T09:00:10.434Z,96362.72
2023-03-04T09:02:37.190Z,96366.10
2023-03-04T09:05:04.315Z,96362.28
2023-03-04T09:07:30.978Z,96358.63
2023-03-04T09:09:57.695Z,96359.90
2023-03-04T09:12:24.479Z,96354.52
2023-03-04T09:15:04.630Z,96348.12
2023-03-04T09:17:35.311Z,96344.56
2023-03-04T09:20:04.408Z,96342.36
2023-03-04T09:22:31.670Z,96334.85
2023-03-04T09:24:58.523Z,96339.73
2023-03-04T09:27:25.161Z,96334.71
2023-03-04T09:29:52.203Z,96334.86
2023-03-04T09:32:18.822Z,96334.59
2023-03-04T09:34:45.674Z,96326.22
2023-03-04T09:37:12.434Z,96324.67
2023-03-04T09:39:39.211Z,96322.11
2023-03-04T09:42:09.667Z,96319.78
2023-03-04T09:44:41.128Z,96320.17
2023-03-04T09:47:20.366Z,96316.84
2023-03-04T09:50:11.673Z,96318.63
2023-03-04T09:53:14.813Z,96311.11
2023-03-04T09:55:47.035Z,96312.70
2023-03-04T09:58:27.332Z,96306.45
2023-03-04T10:01:19.420Z,96305.75
2023-03-04T10:03:53.011Z,96304.50
2023-03-04T10:06:21.614Z,96300.20
2023-03-04T10:09:20.477Z,96298.67
2023-03-04T10:12:03.975Z,96287.58
2023-03-04T10:14:42.824Z,96281.81
2023-03-04T10:17:30.298Z,96276.52
2023-03-04T10:20:12.058Z,96264.05
2023-03-04T10:22:46.061Z,96258.53
2023-03-04T10:25:31.077Z,96250.64
2023-03-04T10:28:19.870Z,96242.43
2023-03-04T10:30:52.782Z,96238.55
2023-03-04T10:33:30.106Z,96231.06
2023-03-04T10:36:01.370Z,96227.98
2023-03-04T10:38:34.605Z,96227.45
2023-03-04T10:41:10.426Z,96225.72
2023-03-04T10:43:37.539Z,96220.59
2023-03-04T10:46:04.708Z,96213.73
2023-03-04T10:48:31.949Z,96212.60
2023-03-04T10:51:18.653Z,96202.94
2023-03-04T10:53:48.419Z,96201.01
2023-03-04T10:56:45.095Z,96198.67
2023-03-04T10:59:32.835Z,96198.20
2023-03-04T11:02:01.930Z,96194.17
2023-03-04T11:04:33.883Z,96193.75
2023-03-04T11:07:00.628Z,96187.95
2023-03-04T11:09:30.237Z,96180.08
2023-03-04T11:12:01.520Z,96180.97
2023-03-04T11:14:36.942Z,96178.66
2023-03-04T11:17:17.191Z,96171.38
2023-03-04T11:19:47.934Z,96174.39
2023-03-04T11:22:18.224Z,96168.21
2023-03-04T11:25:02.300Z,96164.97
2023-03-04T11:27:37.212Z,96159.96
2023-03-04T11:30:24.751Z,96157.23
2023-03-04T11:32:55.397Z,96156.77
2023-03-04T11:35:32.410Z,96149.68
2023-03-04T11:38:16.518Z,96145.05
2023-03-04T11:40:54.149Z,96138.98
2023-03-04T11:43:29.892Z,96137.40
2023-03-04T11:46:27.815Z,96134.77
2023-03-04T11:49:22.754Z,96132.75
2023-03-04T11:52:05.042Z,96126.67
2023-03-04T11:54:56.858Z,96128.01
2023-03-04T11:57:54.570Z,96124.41
2023-03-04T12:00:35.241Z,96121.42
2023-03-04T12:03:38.110Z,96120.52
2023-03-04T12:06:04.944Z,96118.56
2023-03-04T12:08:49.265Z,96109.77
2023-03-04T12:11:32.697Z,96108.45
2023-03-04T12:14:11.591Z,96113.48
2023-03-04T12:17:24.097Z,96110.13
2023-03-04T12:19:59.371Z,96104.14
2023-03-04T12:22:57.217Z,96104.55
2023-03-04T12:25:45.027Z,96101.02
2023-03-04T12:28:51.544Z,96093.38
2023-03-04T12:31:39.127Z,96091.45
2023-03-04T12:34:27.365Z,96081.92
2023-03-04T12:37:32.684Z,96080.77
2023-03-04T12:40:06.536Z,96071.92
2023-03-04T12:42:55.788Z,96068.80
2023-03-04T12:45:42.104Z,96068.65
2023-03-04T12:48:23.163Z,96069.98
2023-03-04T12:51:14.070Z,96065.33
2023-03-04T12:53:46.547Z,96056.38
2023-03-04T12:56:51.745Z,96056.77
2023-03-04T12:59:21.587Z,96053.42
2023-03-04T13:01:53.948Z,96045.09
2023-03-04T13:05:06.902Z,96044.84
2023-03-04T13:07:59.614Z,96036.88
2023-03-04T13:10:26.421Z,96034.28
2023-03-04T13:12:55.985Z,96024.79
2023-03-04T13:15:30.430Z,96024.36
2023-03-04T13:18:30.934Z,96021.90
2023-03-04T13:21:25.807Z,96024.48
2023-03-04T13:23:53.667Z,96015.73
2023-03-04T13:26:28.684Z,96012.35
2023-03-04T13:29:15.513Z,96006.25
2023-03-04T13:32:11.468Z,95999.11
2023-03-04T13:34:45.367Z,95995.50
2023-03-04T13:37:35.946Z,95988.55
2023-03-04T13:40:22.924Z,95981.45
2023-03-04T13:42:50.382Z,95980.10
2023-03-04T13:45:36.982Z,95981.48
2023-03-04T13:48:27.519Z,95976.48
2023-03-04T13:50:55.257Z,95969.57
2023-03-04T13:53:49.406Z,95968.97
2023-03-04T13:56:28.732Z,95962.18
2023-03-04T13:59:14.640Z,95964.25
2023-03-04T14:01:44.352Z,95958.98
2023-03-04T14:04:24.527Z,95953.54
2023-03-04T14:06:53.518Z,95953.69
2023-03-04T14:09:29.359Z,95960.22
2023-03-04T14:11:58.128Z,95954.14
2023-03-04T14:14:28.711Z,95948.25
2023-03-04T14:17:02.619Z,95947.73
2023-03-04T14:19:32.925Z,95945.20
2023-03-04T14:22:00.363Z,95943.16
2023-03-04T14:24:27.232Z,95944.83
2023-03-04T14:27:11.275Z,95946.02
2023-03-04T14:29:37.944Z,95945.25
2023-03-04T14:32:06.063Z,95942.76
2023-03-04T14:34:35.922Z,95941.45
2023-03-04T14:37:20.587Z,95936.39
2023-03-04T14:39:52.712Z,95939.95
2023-03-04T14:42:22.276Z,95933.45
2023-03-04T14:44:50.382Z,95931.52
2023-03-04T14:47:24.326Z,95924.51
2023-03-04T14:49:51.476Z,95922.55
2023-03-04T14:52:38.177Z,95921.94
2023-03-04T14:55:14.368Z,95920.23
2023-03-04T14:57:43.822Z,95919.06
2023-03-04T15:00:19.617Z,95919.67
2023-03-04T15:02:58.888Z,95916.77
2023-03-04T15:05:35.732Z,95916.73
2023-03-04T15:08:16.576Z,95912.37
2023-03-04T15:10:59.806Z,95909.90
2023-03-04T15:13:42.971Z,95902.73
2023-03-04T15:16:12.700Z,95908.92
2023-03-04T15:18:57.383Z,95902.46
2023-03-04T15:21:36.844Z,95906.52
2023-03-04T15:24:05.644Z,95902.51
2023-03-04T15:26:35.242Z,95900.79
2023-03-04T15:29:10.302Z,95901.09
2023-03-04T15:31:37.111Z,95895.13
2023-03-04T15:34:11.416Z,95892.70
2023-03-04T15:36:38.544Z,95891.63
2023-03-04T15:39:05.524Z,95888.65
2023-03-04T15:41:32.272Z,95877.23
2023-03-04T15:43:58.778Z,95879.86
2023-03-04T15:46:25.584Z,95877.40
2023-03-04T15:48:52.361Z,95876.09
2023-03-04T15:51:22.741Z,95874.14
2023-03-04T15:53:52.890Z,95873.05
2023-03-04T15:56:25.181Z,95869.14
2023-03-04T15:59:13.069Z,95863.80
2023-03-04T16:01:39.976Z,95866.42
2023-03-04T16:04:12.808Z,95865.50
2023-03-04T16:06:40.403Z,95861.34
2023-03-04T16:09:13.825Z,95857.09
2023-03-04T16:11:44.894Z,95856.02
2023-03-04T16:14:13.757Z,95853.48
2023-03-04T16:16:41.422Z,95855.38
2023-03-04T16:19:08.051Z,95850.54
2023-03-04T16:21:34.902Z,95853.54
2023-03-04T16:24:02.548Z,95854.13
2023-03-04T16:26:30.689Z,95860.52
2023-03-04T16:28:57.819Z,95857.88
2023-03-04T16:31:24.580Z,95855.02
2023-03-04T16:33:51.361Z,95860.09
2023-03-04T16:36:27.055Z,95858.73
2023-03-04T16:39:01.998Z,95857.77
2023-03-04T16:41:32.493Z,95860.16
2023-03-04T16:44:00.724Z,95861.84
2023-03-04T16:46:27.856Z,95863.40
2023-03-04T16:48:55.037Z,95861.14
2023-03-04T16:51:22.986Z,95860.48
2023-03-04T16:53:55.774Z,95858.88
2023-03-04T16:56:23.556Z,95859.34
2023-03-04T16:58:50.220Z,95854.45
2023-03-04T17:01:24.015Z,95853.59
2023-03-04T17:03:51.845Z,95853.25
2023-03-04T17:06:20.207Z,95855.84
2023-03-04T17:08:46.934Z,95858.56
2023-03-04T17:11:17.748Z,95861.88
2023-03-04T17:13:45.090Z,95867.13
2023-03-04T17:16:12.400Z,95870.30
2023-03-04T17:18:39.299Z,95874.38
2023-03-04T17:21:10.010Z,95873.73
2023-03-04T17:23:37.032Z,95881.23
2023-03-04T17:26:04.410Z,95880.95
2023-03-04T17:28:31.313Z,95883.02
2023-03-04T17:30:57.955Z,95880.80
2023-03-04T17:33:24.612Z,95887.10
2023-03-04T17:35:51.318Z,95884.54
2023-03-04T17:38:18.371Z,95885.41
2023-03-04T17:40:44.984Z,95886.55
2023-03-04T17:43:11.639Z,95887.25
2023-03-04T17:45:42.647Z,95891.52
2023-03-04T17:48:14.764Z,95890.59
2023-03-04T17:50:52.185Z,95895.04
2023-03-04T17:53:19.942Z,95888.14
2023-03-04T17:55:54.927Z,95891.71
2023-03-04T17:58:22.648Z,95895.04
2023-03-04T18:00:52.043Z,95897.23
2023-03-04T18:03:19.347Z,95901.50
2023-03-04T18:05:45.941Z,95904.17
2023-03-04T18:08:12.541Z,95908.27
2023-03-04T18:10:39.227Z,95909.94
2023-03-04T18:13:05.916Z,95915.12
2023-03-04T18:15:32.774Z,95911.85
2023-03-04T18:17:59.573Z,95913.27
2023-03-04T18:20:26.475Z,95915.67
2023-03-04T18:22:53.413Z,95918.48
2023-03-04T18:25:20.849Z,95922.61
2023-03-04T18:27:47.600Z,95923.16
2023-03-04T18:30:17.310Z,95928.73
2023-03-04T18:32:51.760Z,95928.09
2023-03-04T18:35:19.877Z,95924.98
2023-03-04T18:37:47.723Z,95927.10
2023-03-04T18:40:15.318Z,95928.83
2023-03-04T18:42:44.897Z,95926.54
2023-03-04T18:45:13.134Z,95928.93
2023-03-04T18:47:43.327Z,95927.05
2023-03-04T18:50:12.020Z,95931.30
2023-03-04T18:52:39.078Z,95923.48
2023-03-04T18:55:06.325Z,95926.31
2023-03-04T18:57:33.418Z,95926.10
2023-03-04T19:00:03.483Z,95923.63
2023-03-04T19:02:59.078Z,95926.77
2023-03-04T19:05:28.442Z,95922.98
2023-03-04T19:07:55.432Z,95924.92
2023-03-04T19:10:23.253Z,95928.41
2023-03-04T19:12:49.882Z,95929.25
2023-03-04T19:15:17.753Z,95927.80
2023-03-04T19:17:47.190Z,95931.50
2023-03-04T19:20:15.279Z,95932.02
2023-03-04T19:22:43.215Z,95928.14
2023-03-04T19:25:11.184Z,95931.81
2023-03-04T19:27:37.821Z,95931.52
2023-03-04T19:30:05.735Z,95933.81
2023-03-04T19:32:33.125Z,95932.14
2023-03-04T19:34:59.885Z,95934.17
2023-03-04T19:37:26.498Z,95935.48
2023-03-04T19:39:55.386Z,95936.13
2023-03-04T19:42:23.294Z,95931.86
2023-03-04T19:44:49.914Z,95937.73
2023-03-04T19:47:16.813Z,95933.98
2023-03-04T19:49:43.408Z,95937.61
2023-03-04T19:52:10.030Z,95937.54
2023-03-04T19:54:36.774Z,95938.95
2023-03-04T19:57:03.631Z,95936.59
2023-03-04T19:59:30.160Z,95938.96
2023-03-04T20:01:56.894Z,95937.80
2023-03-04T20:04:23.645Z,95942.52
2023-03-04T20:06:50.790Z,95941.13
2023-03-04T20:09:18.341Z,95939.95
2023-03-04T20:11:57.823Z,95934.79
2023-03-04T20:14:26.865Z,95935.83
2023-03-04T20:16:54.636Z,95934.54
2023-03-04T20:19:21.266Z,95931.56
2023-03-04T20:21:48.226Z,95932.22
2023-03-04T20:24:14.863Z,95932.38
2023-03-04T20:26:41.602Z,95925.89
2023-03-04T20:29:08.166Z,95925.55
2023-03-04T20:31:38.498Z,95930.11
2023-03-04T20:34:06.949Z,95925.51
2023-03-04T20:36:34.087Z,95925.08
2023-03-04T20:39:03.271Z,95922.52
2023-03-04T20:41:34.018Z,95920.27
2023-03-04T20:44:00.832Z,95924.03
2023-03-04T20:46:34.161Z,95915.90
2023-03-04T20:49:03.694Z,95916.71
2023-03-04T20:51:31.841Z,95918.46
2023-03-04T20:53:59.300Z,95915.17
2023-03-04T20:56:26.541Z,95918.71
2023-03-04T20:58:55.136Z,95918.69
2023-03-04T21:01:22.714Z,95913.81
2023-03-04T21:03:49.765Z,95919.27
2023-03-04T21:06:16.373Z,95920.14
2023-03-04T21:08:43.635Z,95920.98
2023-03-04T21:11:15.683Z,95914.60
2023-03-04T21:13:42.844Z,95915.20
2023-03-04T21:16:16.845Z,95912.67
2023-03-04T21:18:44.113Z,95909.55
2023-03-04T21:21:21.500Z,95910.20
2023-03-04T21:23:53.060Z,95909.98
2023-03-04T21:26:21.746Z,95905.59
2023-03-04T21:28:50.441Z,95903.96
2023-03-04T21:31:39.800Z,95903.02
2023-03-04T21:34:14.768Z,95902.25
2023-03-04T21:36:41.469Z,95902.41
2023-03-04T21:39:13.122Z,95900.49
2023-03-04T21:41:39.826Z,95896.59
2023-03-04T21:44:06.613Z,95895.12
2023-03-04T21:46:34.913Z,95892.99
2023-03-04T21:49:03.278Z,95889.95
2023-03-04T21:51:30.737Z,95891.83
2023-03-04T21:53:57.594Z,95891.35
2023-03-04T21:56:24.336Z,95890.98
2023-03-04T21:58:51.002Z,95887.76
2023-03-04T22:01:19.966Z,95886.98
2023-03-04T22:03:49.276Z,95882.89
2023-03-04T22:06:21.061Z,95883.90
2023-03-04T22:08:48.898Z,95886.33
2023-03-04T22:11:15.743Z,95887.10
2023-03-04T22:13:42.980Z,95882.65
2023-03-04T22:16:10.572Z,95881.20
2023-03-04T22:18:40.121Z,95880.71
2023-03-04T22:21:11.880Z,95878.69
2023-03-04T22:23:39.393Z,95878.56
2023-03-04T22:26:10.763Z,95878.43
2023-03-04T22:28:37.868Z,95878.63
2023-03-04T22:31:17.303Z,95879.22
2023-03-04T22:33:44.670Z,95881.07
2023-03-04T22:36:12.242Z,95879.31
2023-03-04T22:38:40.139Z,95880.94
2023-03-04T22:41:15.289Z,95885.14
2023-03-04T22:43:42.912Z,95883.43
2023-03-04T22:46:20.612Z,95880.12
2023-03-04T22:48:52.454Z,95879.89
2023-03-04T22:51:20.186Z,95881.02
2023-03-04T22:53:48.303Z,95878.36
2023-03-04T22:56:15.674Z,95877.02
2023-03-04T22:58:44.231Z,95876.20
2023-03-04T23:01:12.273Z,95872.73
2023-03-04T23:03:40.882Z,95875.14
2023-03-04T23:06:15.298Z,95869.51
2023-03-04T23:08:44.086Z,95867.16
2023-03-04T23:11:22.726Z,95866.39
2023-03-04T23:13:50.256Z,95872.40
2023-03-04T23:16:18.361Z,95877.64
2023-03-04T23:18:46.892Z,95879.33
2023-03-04T23:21:16.935Z,95883.73
2023-03-04T23:23:44.710Z,95885.73
2023-03-04T23:26:20.529Z,95887.08
2023-03-04T23:28:48.029Z,95883.61
2023-03-04T23:31:15.257Z,95891.57
2023-03-04T23:33:42.926Z,95889.98
2023-03-04T23:36:14.225Z,95885.02
2023-03-04T23:38:45.117Z,95891.14
2023-03-04T23:41:17.689Z,95894.23
2023-03-04T23:43:45.356Z,95890.80
2023-03-04T23:46:12.257Z,95891.39
2023-03-04T23:48:42.648Z,95896.08
2023-03-04T23:51:09.597Z,95902.55
2023-03-04T23:53:38.373Z,95903.88
2023-03-04T23:56:09.954Z,95909.02
2023-03-04T23:58:37.385Z,95909.07
